createdAt,value
2019-03-30T00:01:41.137Z,10.82
2019-03-30T00:04:12.872Z,10.81
2019-03-30T00:06:44.616Z,10.78
2019-03-30T00:09:18.350Z,10.76
2019-03-30T00:11:50.399Z,10.73
2019-03-30T00:14:22.203Z,10.70
2019-03-30T00:16:53.894Z,10.68
2019-03-30T00:19:34.707Z,10.65
2019-03-30T00:21:59.104Z,10.63
2019-03-30T00:24:30.837Z,10.60
2019-03-30T00:27:02.586Z,10.58
2019-03-30T00:29:34.510Z,10.55
2019-03-30T00:32:06.196Z,10.53
2019-03-30T00:34:37.941Z,10.51
2019-03-30T00:37:09.704Z,10.49
2019-03-30T00:39:41.785Z,10.47
2019-03-30T00:42:13.550Z,10.44
2019-03-30T00:44:45.273Z,10.43
2019-03-30T00:47:16.988Z,10.41
2019-03-30T00:49:50.130Z,10.37
2019-03-30T00:52:22.075Z,10.35
2019-03-30T00:54:53.841Z,10.32
2019-03-30T00:57:25.541Z,10.31
2019-03-30T00:59:57.331Z,10.29
2019-03-30T01:02:29.157Z,10.26
2019-03-30T01:05:00.910Z,10.24
2019-03-30T01:07:32.697Z,10.20
2019-03-30T01:10:04.633Z,10.19
2019-03-30T01:12:36.369Z,10.16
2019-03-30T01:15:08.433Z,10.14
2019-03-30T01:17:40.301Z,10.11
2019-03-30T01:20:12.153Z,10.09
2019-03-30T01:22:43.907Z,10.08
2019-03-30T01:25:15.594Z,10.04
2019-03-30T01:27:47.363Z,10.02
2019-03-30T01:30:23.296Z,10.00
2019-03-30T01:32:52.878Z,9.98
2019-03-30T01:35:24.787Z,9.96
2019-03-30T01:37:56.670Z,9.93
2019-03-30T01:40:28.361Z,9.90
2019-03-30T01:43:00.066Z,9.88
2019-03-30T01:45:31.794Z,9.85
2019-03-30T01:48:03.537Z,9.83
2019-03-30T01:50:35.401Z,9.80
2019-03-30T01:53:07.100Z,9.78
2019-03-30T01:55:38.781Z,9.77
2019-03-30T01:58:10.490Z,9.75
2019-03-30T02:00:42.221Z,9.73
2019-03-30T02:03:13.918Z,9.71
2019-03-30T02:05:45.714Z,9.70
2019-03-30T02:08:17.446Z,9.67
2019-03-30T02:10:49.293Z,9.65
2019-03-30T02:13:21.037Z,9.64
2019-03-30T02:15:52.775Z,9.62
2019-03-30T02:18:24.590Z,9.60
2019-03-30T02:20:56.317Z,9.59
2019-03-30T02:23:28.068Z,9.56
2019-03-30T02:25:59.767Z,9.55
2019-03-30T02:28:31.553Z,9.53
2019-03-30T02:31:03.275Z,9.51
2019-03-30T02:33:34.982Z,9.50
2019-03-30T02:36:06.723Z,9.47
2019-03-30T02:38:38.475Z,9.46
2019-03-30T02:41:10.162Z,9.45
2019-03-30T02:43:41.942Z,9.42
2019-03-30T02:46:13.743Z,9.40
2019-03-30T02:48:45.475Z,9.39
2019-03-30T02:51:17.218Z,9.36
2019-03-30T02:53:49.969Z,9.34
2019-03-30T02:56:21.775Z,9.31
2019-03-30T02:58:53.501Z,9.29
2019-03-30T03:01:26.847Z,9.27
2019-03-30T03:03:58.576Z,9.25
2019-03-30T03:06:30.273Z,9.23
2019-03-30T03:09:02.050Z,9.21
2019-03-30T03:11:35.136Z,9.19
2019-03-30T03:14:06.849Z,9.18
2019-03-30T03:16:38.554Z,9.15
2019-03-30T03:19:10.325Z,9.14
2019-03-30T03:21:43.108Z,9.10
2019-03-30T03:24:15.912Z,9.09
2019-03-30T03:26:47.661Z,9.07
2019-03-30T03:29:19.586Z,9.05
2019-03-30T03:31:51.316Z,9.02
2019-03-30T03:34:23.016Z,8.99
2019-03-30T03:36:55.698Z,8.96
2019-03-30T03:39:27.407Z,8.94
2019-03-30T03:41:59.097Z,8.91
2019-03-30T03:44:30.805Z,8.88
2019-03-30T03:47:02.590Z,8.86
2019-03-30T03:49:35.388Z,8.84
2019-03-30T03:52:07.369Z,8.82
2019-03-30T03:54:39.053Z,8.79
2019-03-30T03:57:12.314Z,8.77
2019-03-30T03:59:44.051Z,8.75
2019-03-30T04:02:16.101Z,8.72
2019-03-30T04:04:49.817Z,8.70
2019-03-30T04:07:23.038Z,8.69
2019-03-30T04:09:56.396Z,8.66
2019-03-30T04:12:30.588Z,8.64
2019-03-30T04:15:02.332Z,8.63
2019-03-30T04:17:34.150Z,8.61
2019-03-30T04:20:06.852Z,8.59
2019-03-30T04:22:38.648Z,8.57
2019-03-30T04:25:10.466Z,8.54
2019-03-30T04:27:42.195Z,8.52
2019-03-30T04:30:14.063Z,8.49
2019-03-30T04:32:45.953Z,8.47
2019-03-30T04:35:17.661Z,8.44
2019-03-30T04:37:49.467Z,8.41
2019-03-30T04:40:21.223Z,8.38
2019-03-30T04:42:53.001Z,8.35
2019-03-30T04:45:24.758Z,8.33
2019-03-30T04:47:56.494Z,8.29
2019-03-30T04:50:28.289Z,8.28
2019-03-30T04:53:00.092Z,8.24
2019-03-30T04:55:31.893Z,8.21
2019-03-30T04:58:03.658Z,8.19
2019-03-30T05:00:35.471Z,8.16
2019-03-30T05:03:07.325Z,8.11
2019-03-30T05:05:42.783Z,8.09
2019-03-30T05:08:12.777Z,8.06
2019-03-30T05:10:44.562Z,8.03
2019-03-30T05:13:16.287Z,8.00
2019-03-30T05:15:47.994Z,7.99
2019-03-30T05:18:19.693Z,7.97
2019-03-30T05:20:51.440Z,7.96
2019-03-30T05:23:23.344Z,7.95
2019-03-30T05:25:55.069Z,7.94
2019-03-30T05:28:26.754Z,7.92
2019-03-30T05:30:58.562Z,7.92
2019-03-30T05:33:30.336Z,7.90
2019-03-30T05:36:02.006Z,7.89
2019-03-30T05:38:33.744Z,7.89
2019-03-30T05:41:05.768Z,7.89
2019-03-30T05:43:37.415Z,7.88
2019-03-30T05:46:09.194Z,7.88
2019-03-30T05:48:40.884Z,7.88
2019-03-30T05:51:12.602Z,7.87
2019-03-30T05:53:44.304Z,7.88
2019-03-30T05:56:16.126Z,7.86
2019-03-30T05:58:47.808Z,7.87
2019-03-30T06:01:19.555Z,7.87
2019-03-30T06:03:51.311Z,7.88
2019-03-30T06:06:23.041Z,7.87
2019-03-30T06:08:54.782Z,7.89
2019-03-30T06:11:26.685Z,7.91
2019-03-30T06:13:58.381Z,7.92
2019-03-30T06:16:30.130Z,7.93
2019-03-30T06:19:01.842Z,7.95
2019-03-30T06:21:33.546Z,7.97
2019-03-30T06:24:05.444Z,8.00
2019-03-30T06:26:38.111Z,8.03
2019-03-30T06:29:09.924Z,8.08
2019-03-30T06:31:41.733Z,8.11
2019-03-30T06:34:13.506Z,8.15
2019-03-30T06:36:46.520Z,8.18
2019-03-30T06:39:18.426Z,8.23
2019-03-30T06:41:50.369Z,8.27
2019-03-30T06:44:22.166Z,8.30
2019-03-30T06:46:54.044Z,8.34
2019-03-30T06:49:25.923Z,8.38
2019-03-30T06:51:57.762Z,8.43
2019-03-30T06:54:29.732Z,8.47
2019-03-30T06:57:01.638Z,8.52
2019-03-30T06:59:33.508Z,8.57
2019-03-30T07:02:05.311Z,8.61
2019-03-30T07:04:37.453Z,8.65
2019-03-30T07:07:12.424Z,8.71
2019-03-30T07:09:46.482Z,8.76
2019-03-30T07:12:21.284Z,8.82
2019-03-30T07:14:54.579Z,8.87
2019-03-30T07:17:26.315Z,8.91
2019-03-30T07:19:59.739Z,8.98
2019-03-30T07:22:31.504Z,9.04
2019-03-30T07:25:04.431Z,9.10
2019-03-30T07:27:36.202Z,9.15
2019-03-30T07:30:09.842Z,9.22
2019-03-30T07:32:41.605Z,9.27
2019-03-30T07:35:13.346Z,9.34
2019-03-30T07:37:45.105Z,9.40
2019-03-30T07:40:16.809Z,9.47
2019-03-30T07:42:48.574Z,9.55
2019-03-30T07:45:20.500Z,9.63
2019-03-30T07:47:52.525Z,9.71
2019-03-30T07:50:24.216Z,9.79
2019-03-30T07:52:55.927Z,9.89
2019-03-30T07:55:27.695Z,9.96
2019-03-30T07:57:59.598Z,10.06
2019-03-30T08:00:31.466Z,10.17
2019-03-30T08:03:03.238Z,10.27
2019-03-30T08:05:35.116Z,10.38
2019-03-30T08:08:06.888Z,10.49
2019-03-30T08:10:38.660Z,10.59
2019-03-30T08:13:10.403Z,10.71
2019-03-30T08:15:42.182Z,10.82
2019-03-30T08:18:13.996Z,10.91
2019-03-30T08:20:45.805Z,11.02
2019-03-30T08:23:17.648Z,11.12
2019-03-30T08:25:49.420Z,11.21
2019-03-30T08:28:21.200Z,11.33
2019-03-30T08:30:52.981Z,11.43
2019-03-30T08:33:24.694Z,11.53
2019-03-30T08:35:56.500Z,11.65
2019-03-30T08:38:29.346Z,11.98
2019-03-30T08:41:01.134Z,12.43
2019-03-30T08:43:32.872Z,12.75
2019-03-30T08:46:04.878Z,13.00
2019-03-30T08:48:36.662Z,13.25
2019-03-30T08:51:08.529Z,13.47
2019-03-30T08:53:53.725Z,13.65
2019-03-30T08:56:14.035Z,13.83
2019-03-30T08:58:45.835Z,13.99
2019-03-30T09:01:17.775Z,14.14
2019-03-30T09:03:49.638Z,14.30
2019-03-30T09:06:21.600Z,14.46
2019-03-30T09:08:53.554Z,14.62
2019-03-30T09:11:25.407Z,14.76
2019-03-30T09:13:57.307Z,14.93
2019-03-30T09:16:29.160Z,15.08
2019-03-30T09:19:01.016Z,15.29
2019-03-30T09:21:32.790Z,15.50
2019-03-30T09:24:10.053Z,15.67
2019-03-30T09:26:39.075Z,15.87
2019-03-30T09:29:10.897Z,16.14
2019-03-30T09:31:42.830Z,16.38
2019-03-30T09:34:14.610Z,16.57
2019-03-30T09:36:46.428Z,16.66
2019-03-30T09:39:18.391Z,16.74
2019-03-30T09:41:50.205Z,16.85
2019-03-30T09:44:22.045Z,16.91
2019-03-30T09:46:53.888Z,16.99
2019-03-30T09:49:25.669Z,17.05
2019-03-30T09:51:57.586Z,17.09
2019-03-30T09:54:29.469Z,17.14
2019-03-30T09:57:01.389Z,17.19
2019-03-30T09:59:33.307Z,17.23
2019-03-30T10:02:05.176Z,17.30
2019-03-30T10:04:37.069Z,17.39
2019-03-30T10:07:08.906Z,17.46
2019-03-30T10:09:40.722Z,17.51
2019-03-30T10:12:12.479Z,17.56
2019-03-30T10:14:44.257Z,17.56
2019-03-30T10:17:16.024Z,17.54
2019-03-30T10:19:57.990Z,17.57
2019-03-30T10:22:21.576Z,17.58
2019-03-30T10:24:53.329Z,17.58
2019-03-30T10:27:25.307Z,17.60
2019-03-30T10:29:57.028Z,17.64
2019-03-30T10:32:28.816Z,17.67
2019-03-30T10:35:00.578Z,17.67
2019-03-30T10:37:33.606Z,17.69
2019-03-30T10:40:05.966Z,17.72
2019-03-30T10:42:37.785Z,17.75
2019-03-30T10:45:09.783Z,17.81
2019-03-30T10:47:41.643Z,17.84
2019-03-30T10:50:13.513Z,17.88
2019-03-30T10:52:45.322Z,17.91
2019-03-30T10:55:17.087Z,17.93
2019-03-30T10:57:48.882Z,17.96
2019-03-30T11:00:40.369Z,17.98
2019-03-30T11:03:12.137Z,17.99
2019-03-30T11:05:43.976Z,18.04
2019-03-30T11:08:15.778Z,18.09
2019-03-30T11:10:47.687Z,18.16
2019-03-30T11:13:19.787Z,18.23
2019-03-30T11:15:52.687Z,18.28
2019-03-30T11:18:24.452Z,18.33
2019-03-30T11:20:56.287Z,18.37
2019-03-30T11:23:28.053Z,18.42
2019-03-30T11:25:59.954Z,18.48
2019-03-30T11:28:31.751Z,18.51
2019-03-30T11:31:05.421Z,18.57
2019-03-30T11:33:36.966Z,18.64
2019-03-30T11:36:08.770Z,18.69
2019-03-30T11:38:40.526Z,18.73
2019-03-30T11:41:12.460Z,18.72
2019-03-30T11:43:44.225Z,18.74
2019-03-30T11:46:15.983Z,18.79
2019-03-30T11:48:47.839Z,18.81
2019-03-30T11:51:19.621Z,18.88
2019-03-30T11:53:51.390Z,18.99
2019-03-30T11:56:23.174Z,19.09
2019-03-30T11:58:54.953Z,19.23
2019-03-30T12:01:26.835Z,19.38
2019-03-30T12:03:58.561Z,19.43
2019-03-30T12:06:30.384Z,19.51
2019-03-30T12:09:02.456Z,19.59
2019-03-30T12:11:34.215Z,19.61
2019-03-30T12:14:05.968Z,19.71
2019-03-30T12:16:37.777Z,19.78
2019-03-30T12:19:09.597Z,19.75
2019-03-30T12:21:41.422Z,19.76
2019-03-30T12:24:13.283Z,19.84
2019-03-30T12:26:45.018Z,19.97
2019-03-30T12:29:16.796Z,20.11
2019-03-30T12:31:48.625Z,20.28
2019-03-30T12:34:20.377Z,20.44
2019-03-30T12:36:52.107Z,20.57
2019-03-30T12:39:23.808Z,20.74
2019-03-30T12:41:55.538Z,20.97
2019-03-30T12:44:27.249Z,21.19
2019-03-30T12:46:59.062Z,21.47
2019-03-30T12:49:30.751Z,21.70
2019-03-30T12:52:02.445Z,21.98
2019-03-30T12:54:34.199Z,22.18
2019-03-30T12:57:05.968Z,22.36
2019-03-30T12:59:37.706Z,23.34
2019-03-30T13:02:09.606Z,25.63
2019-03-30T13:04:41.327Z,28.35
2019-03-30T13:07:13.062Z,30.66
2019-03-30T13:09:44.804Z,32.90
2019-03-30T13:12:16.622Z,34.82
2019-03-30T13:14:48.369Z,36.26
2019-03-30T13:17:20.245Z,37.71
2019-03-30T13:19:52.011Z,38.81
2019-03-30T13:22:23.820Z,39.14
2019-03-30T13:24:55.631Z,39.65
2019-03-30T13:27:27.463Z,39.92
2019-03-30T13:29:59.283Z,40.13
2019-03-30T13:32:31.020Z,40.51
2019-03-30T13:35:02.733Z,40.32
2019-03-30T13:37:34.519Z,40.12
2019-03-30T13:40:06.819Z,39.51
2019-03-30T13:42:38.556Z,39.11
2019-03-30T13:45:10.544Z,38.98
2019-03-30T13:47:42.343Z,39.14
2019-03-30T13:50:14.155Z,39.39
2019-03-30T13:52:45.996Z,39.07
2019-03-30T13:55:17.708Z,38.96
2019-03-30T13:57:49.536Z,40.02
2019-03-30T14:00:21.260Z,40.32
2019-03-30T14:02:53.096Z,40.90
2019-03-30T14:05:24.810Z,42.12
2019-03-30T14:07:57.834Z,43.09
2019-03-30T14:10:29.606Z,43.76
2019-03-30T14:13:01.438Z,44.26
2019-03-30T14:15:33.367Z,44.31
2019-03-30T14:18:05.118Z,44.47
2019-03-30T14:20:36.840Z,44.59
2019-03-30T14:23:08.738Z,44.85
2019-03-30T14:25:40.533Z,44.44
2019-03-30T14:28:12.268Z,44.56
2019-03-30T14:30:44.039Z,44.51
2019-03-30T14:33:15.839Z,43.35
2019-03-30T14:35:47.622Z,42.15
2019-03-30T14:38:19.321Z,40.74
2019-03-30T14:40:51.100Z,38.47
2019-03-30T14:43:22.845Z,36.72
2019-03-30T14:45:54.577Z,35.36
2019-03-30T14:48:26.393Z,34.15
2019-03-30T14:50:58.062Z,33.22
2019-03-30T14:53:29.831Z,32.42
2019-03-30T14:56:01.585Z,31.57
2019-03-30T14:58:33.331Z,30.59
2019-03-30T15:01:05.349Z,29.75
2019-03-30T15:03:37.083Z,29.33
2019-03-30T15:06:08.799Z,29.18
2019-03-30T15:08:40.508Z,29.09
2019-03-30T15:11:12.279Z,28.89
2019-03-30T15:13:44.013Z,28.69
2019-03-30T15:16:15.857Z,28.57
2019-03-30T15:18:47.617Z,28.46
2019-03-30T15:21:19.370Z,28.29
2019-03-30T15:23:51.081Z,28.19
2019-03-30T15:26:23.034Z,28.07
2019-03-30T15:28:54.850Z,27.96
2019-03-30T15:31:26.548Z,27.80
2019-03-30T15:33:58.300Z,27.73
2019-03-30T15:36:30.113Z,27.59
2019-03-30T15:39:01.848Z,27.54
2019-03-30T15:41:35.479Z,27.42
2019-03-30T15:44:07.475Z,27.35
2019-03-30T15:46:39.235Z,27.31
2019-03-30T15:49:11.108Z,27.32
2019-03-30T15:51:42.857Z,27.34
2019-03-30T15:54:14.586Z,27.23
2019-03-30T15:56:46.492Z,27.10
2019-03-30T15:59:18.229Z,27.05
2019-03-30T16:01:49.919Z,27.12
2019-03-30T16:04:21.657Z,27.17
2019-03-30T16:06:53.400Z,27.25
2019-03-30T16:09:25.115Z,27.28
2019-03-30T16:11:56.910Z,27.32
2019-03-30T16:14:28.670Z,27.26
2019-03-30T16:17:00.460Z,26.96
2019-03-30T16:19:32.180Z,26.61
2019-03-30T16:22:03.964Z,26.18
2019-03-30T16:24:35.810Z,25.95
2019-03-30T16:27:07.586Z,25.91
2019-03-30T16:29:39.334Z,25.88
2019-03-30T16:32:11.166Z,25.72
2019-03-30T16:34:43.922Z,25.60
2019-03-30T16:37:15.611Z,25.53
2019-03-30T16:39:47.339Z,25.37
2019-03-30T16:42:19.123Z,25.12
2019-03-30T16:44:51.030Z,24.80
2019-03-30T16:47:22.815Z,24.56
2019-03-30T16:49:54.575Z,24.34
2019-03-30T16:52:26.390Z,24.17
2019-03-30T16:54:58.294Z,24.08
2019-03-30T16:57:42.415Z,23.99
2019-03-30T17:00:03.603Z,23.89
2019-03-30T17:02:35.420Z,23.75
2019-03-30T17:05:07.982Z,23.59
2019-03-30T17:07:39.694Z,23.40
2019-03-30T17:10:12.890Z,23.24
2019-03-30T17:12:44.638Z,23.07
2019-03-30T17:15:16.426Z,22.88
2019-03-30T17:17:48.169Z,22.70
2019-03-30T17:20:20.140Z,22.86
2019-03-30T17:22:51.960Z,22.46
2019-03-30T17:25:23.717Z,22.21
2019-03-30T17:27:58.663Z,21.98
2019-03-30T17:30:28.999Z,21.79
2019-03-30T17:33:00.792Z,21.61
2019-03-30T17:35:33.720Z,21.45
2019-03-30T17:38:05.628Z,21.30
2019-03-30T17:40:37.495Z,21.15
2019-03-30T17:43:09.221Z,21.02
2019-03-30T17:45:41.052Z,20.87
2019-03-30T17:48:12.733Z,20.73
2019-03-30T17:50:44.476Z,20.60
2019-03-30T17:53:17.108Z,20.48
2019-03-30T17:55:48.958Z,20.38
2019-03-30T17:58:21.735Z,20.26
2019-03-30T18:00:53.471Z,20.16
2019-03-30T18:03:25.330Z,20.05
2019-03-30T18:05:57.074Z,19.94
2019-03-30T18:08:28.934Z,19.82
2019-03-30T18:11:04.011Z,19.73
2019-03-30T18:13:36.966Z,19.63
2019-03-30T18:16:09.759Z,19.54
2019-03-30T18:18:41.748Z,19.46
2019-03-30T18:21:13.603Z,19.40
2019-03-30T18:23:47.535Z,19.33
2019-03-30T18:26:18.779Z,19.26
2019-03-30T18:28:50.465Z,19.19
2019-03-30T18:31:22.343Z,19.14
2019-03-30T18:33:54.059Z,19.08
2019-03-30T18:36:27.097Z,19.03
2019-03-30T18:39:09.468Z,18.96
2019-03-30T18:41:34.420Z,18.90
2019-03-30T18:44:06.365Z,18.84
2019-03-30T18:46:38.161Z,18.79
2019-03-30T18:49:10.158Z,18.74
2019-03-30T18:51:43.567Z,18.69
2019-03-30T18:54:15.568Z,18.63
2019-03-30T18:56:47.382Z,18.58
2019-03-30T18:59:19.189Z,18.54
2019-03-30T19:01:50.996Z,18.51
2019-03-30T19:04:22.936Z,18.48
2019-03-30T19:06:54.760Z,18.44
2019-03-30T19:09:26.649Z,18.42
2019-03-30T19:11:58.646Z,18.39
2019-03-30T19:14:30.487Z,18.35
2019-03-30T19:17:02.254Z,18.30
2019-03-30T19:19:34.171Z,18.30
2019-03-30T19:22:05.938Z,18.27
2019-03-30T19:24:37.865Z,18.23
2019-03-30T19:27:09.859Z,18.20
2019-03-30T19:29:41.685Z,18.16
2019-03-30T19:32:13.491Z,18.14
2019-03-30T19:34:45.351Z,18.09
2019-03-30T19:37:17.228Z,18.05
2019-03-30T19:39:49.062Z,18.01
2019-03-30T19:42:20.876Z,17.96
2019-03-30T19:44:55.697Z,17.92
2019-03-30T19:47:27.666Z,17.87
2019-03-30T19:49:59.652Z,17.81
2019-03-30T19:52:39.753Z,17.75
2019-03-30T19:55:05.534Z,17.70
2019-03-30T19:57:37.476Z,17.65
2019-03-30T20:00:10.020Z,17.59
2019-03-30T20:02:42.260Z,17.49
2019-03-30T20:05:14.899Z,17.40
2019-03-30T20:07:47.056Z,17.31
2019-03-30T20:10:19.234Z,17.24
2019-03-30T20:12:51.161Z,17.20
2019-03-30T20:15:23.439Z,17.17
2019-03-30T20:17:55.330Z,17.15
2019-03-30T20:23:57.583Z,17.13
2019-03-30T20:26:29.427Z,17.06
2019-03-30T20:29:01.745Z,17.03
2019-03-30T20:31:33.613Z,17.02
2019-03-30T20:34:05.679Z,16.99
2019-03-30T20:36:37.604Z,16.97
2019-03-30T20:39:09.688Z,16.95
2019-03-30T20:41:41.532Z,16.93
2019-03-30T20:44:13.365Z,16.90
2019-03-30T20:46:45.672Z,16.86
2019-03-30T20:49:17.902Z,16.83
2019-03-30T20:51:49.885Z,16.81
2019-03-30T20:54:21.892Z,16.80
2019-03-30T20:56:53.689Z,16.78
2019-03-30T20:59:39.084Z,16.77
2019-03-30T21:01:59.475Z,16.76
2019-03-30T21:04:31.623Z,16.74
2019-03-30T21:07:03.641Z,16.72
2019-03-30T21:09:35.684Z,16.71
2019-03-30T21:12:07.980Z,16.71
2019-03-30T21:14:40.523Z,16.70
2019-03-30T21:17:12.568Z,16.68
2019-03-30T21:19:44.602Z,16.66
2019-03-30T21:22:16.562Z,16.63
2019-03-30T21:24:48.518Z,16.61
2019-03-30T21:27:20.303Z,16.59
2019-03-30T21:29:54.901Z,16.58
2019-03-30T21:32:25.930Z,16.55
2019-03-30T21:34:58.025Z,16.52
2019-03-30T21:37:29.901Z,16.48
2019-03-30T21:40:01.763Z,16.45
2019-03-30T21:42:33.648Z,16.42
2019-03-30T21:45:06.260Z,16.41
2019-03-30T21:47:38.242Z,16.38
2019-03-30T21:50:10.370Z,16.34
2019-03-30T21:52:42.163Z,16.30
2019-03-30T21:55:14.390Z,16.23
2019-03-30T21:57:48.090Z,16.15
2019-03-30T22:00:37.590Z,16.09
2019-03-30T22:03:09.485Z,16.05
2019-03-30T22:05:41.708Z,15.99
2019-03-30T22:08:17.014Z,15.98
2019-03-30T22:10:47.102Z,15.96
2019-03-30T22:13:21.470Z,15.92
2019-03-30T22:15:53.859Z,15.90
2019-03-30T22:18:25.669Z,15.87
2019-03-30T22:20:57.544Z,15.85
2019-03-30T22:23:29.393Z,15.82
2019-03-30T22:26:01.200Z,15.80
2019-03-30T22:28:33.193Z,15.77
2019-03-30T22:31:07.053Z,15.73
2019-03-30T22:33:38.978Z,15.70
2019-03-30T22:36:10.783Z,15.68
2019-03-30T22:38:42.848Z,15.66
2019-03-30T22:41:14.719Z,15.64
2019-03-30T22:43:46.832Z,15.62
2019-03-30T22:46:18.646Z,15.58
2019-03-30T22:48:50.462Z,15.56
2019-03-30T22:51:23.409Z,15.51
2019-03-30T22:53:55.490Z,15.45
2019-03-30T22:56:27.480Z,15.40
2019-03-30T22:58:59.440Z,15.35
2019-03-30T23:01:31.260Z,15.30
2019-03-30T23:04:03.858Z,15.24
2019-03-30T23:06:35.727Z,15.19
2019-03-30T23:09:11.251Z,15.14
2019-03-30T23:11:41.448Z,15.09
2019-03-30T23:14:13.768Z,15.04
2019-03-30T23:16:45.630Z,15.00
2019-03-30T23:19:17.533Z,14.94
2019-03-30T23:21:49.284Z,14.89
2019-03-30T23:24:21.144Z,14.86
2019-03-30T23:26:53.165Z,14.82
2019-03-30T23:29:25.073Z,14.80
2019-03-30T23:31:56.915Z,14.77
2019-03-30T23:34:29.423Z,14.73
2019-03-30T23:37:01.331Z,14.70
2019-03-30T23:39:33.273Z,14.63
2019-03-30T23:42:05.279Z,14.58
2019-03-30T23:44:37.369Z,14.52
2019-03-30T23:47:09.359Z,14.45
2019-03-30T23:49:41.409Z,14.40
2019-03-30T23:52:13.255Z,14.35
2019-03-30T23:54:45.125Z,14.29
2019-03-30T23:57:16.945Z,14.21
2019-03-30T23:59:48.769Z,14.15
